Monroe, South Dakota
Current Conditions -  °F | °C
As of 2:56 AM on Friday 19 Dec 2014 (Local Time) from KFSD Reporting Station
Overcast Overcast  
Wind Chill: 19°   Ceiling: 1200
Heat Index: 28°   Visibility: 8mi
Dew Point: 25°   Wind: 9mph
Humidity: 88%   Direction: 200°SSW
Pressure: 30.16"   Gusts: NA
Location:  43.49°N, 97.22°W
Report Text: KFSD 190856Z AUTO 20008KT 8SM OVC012 M02/M04 A3016 RMK AO2 SLP235 T10221039 56005
Loading
Personal Weather Stations






























Interactive Weather Map New forecast layout! Learn more

10-Day Weather Forecast

Advertisements
Track Severe Weather on mobile